KRWF

Redwood Falls Municipal Airport

Redwood Falls, Minnesota, USA
METAR KRWF 231053Z AUTO 18009KT 10SM VCTS SCT080 BKN110 17/17 A3005 RMK AO2 LTG DSNT SE-W SLP171 T01720167
Observed Flight Rules
May-23 @ 10:53 UTC (18 minutes ago) Visual Flight Rules
Wind Visibility Clouds Conditions
180° at 9 knots 10 miles
  • Scattered at 8,000' AGL
  • Broken at 11,000' AGL
  • Area Thunderstorm
Temperatures Readings
Current 17°C / 63°F
Dewpoint 17°C / 63°F
Humidity 100%
Altimeter 30.05" Hg
Pressure 1017.1 hPa
Elevation 311
METAR KRWF 231053Z AUTO 18009KT 10SM VCTS SCT080 BKN110 17/17 A3005 RMK AO2 LTG DSNT SE-W SLP171 T01720167
Observed Flight Rules
May-23 @ 10:53 UTC
(18 minutes ago)
VFR
Wind Visibility
180° at 9 knots 10 miles
Clouds
  • Scattered at 8,000' AGL
  • Broken at 11,000' AGL
Conditions
  • Area Thunderstorm
Temperature Dewpoint
17°C / 63°F 17°C / 63°F
Humidity Altimeter Pressure
100% 30.05" Hg 1017.1 hPa